Time;durP1;ratioP1;P1;durP2;ratioP2;P2;SDS_P1;SDS_P2;PMS_P1;PMS_P2;Temp;Humidity;BMP_temperature;BMP_pressure;BME280_temperature;BME280_humidity;BME280_pressure;Samples;Min_cycle;Max_cycle;Signal;HPM_P1;HPM_P2
2024/01/15 00:01:29;;;;;;;11.80;7.22;;;;;;;;;;4911983;29;20099;-64
2024/01/15 00:03:55;;;;;;;9.85;6.20;;;;;;;;;;4912334;29;20024;-63
2024/01/15 00:06:20;;;;;;;9.98;6.50;;;;;;;;;;4912185;29;20035;-64
2024/01/15 00:08:46;;;;;;;13.20;6.47;;;;;;;;;;4912761;29;20445;-65
2024/01/15 00:11:12;;;;;;;9.82;6.28;;;;;;;;;;4916376;29;20035;-64
2024/01/15 00:13:37;;;;;;;9.60;6.28;;;;;;;;;;4917856;29;20413;-65
2024/01/15 00:16:04;;;;;;;8.88;6.55;;;;;;;;;;4899673;29;20035;-64
2024/01/15 00:18:30;;;;;;;10.95;6.25;;;;;;;;;;4900754;29;20024;-64
2024/01/15 00:20:56;;;;;;;9.30;5.80;;;;;;;;;;4916358;29;20035;-64
2024/01/15 00:23:22;;;;;;;13.55;6.65;;;;;;;;;;4917482;29;20394;-64
2024/01/15 00:25:48;;;;;;;10.70;7.07;;;;;;;;;;4917164;29;20110;-64
2024/01/15 00:28:14;;;;;;;9.95;6.43;;;;;;;;;;4916902;29;20452;-64
2024/01/15 00:30:39;;;;;;;11.52;6.15;;;;;;;;;;4917308;29;20481;-64
2024/01/15 00:33:05;;;;;;;14.27;6.30;;;;;;;;;;4900141;29;20040;-64
2024/01/15 00:35:30;;;;;;;9.10;6.38;;;;;;;;;;4918336;29;20036;-63
2024/01/15 00:37:56;;;;;;;8.45;6.30;;;;;;;;;;4917379;29;20413;-64
2024/01/15 00:40:21;;;;;;;10.30;6.70;;;;;;;;;;4917517;29;20024;-64
2024/01/15 00:42:47;;;;;;;14.43;6.85;;;;;;;;;;4916609;29;20032;-64
2024/01/15 00:45:12;;;;;;;10.43;6.22;;;;;;;;;;4916469;29;20044;-64
2024/01/15 00:47:39;;;;;;;9.63;6.53;;;;;;;;;;4917114;29;20024;-64
2024/01/15 00:50:05;;;;;;;11.13;7.15;;;;;;;;;;4918245;29;20027;-64
2024/01/15 00:52:30;;;;;;;10.02;6.30;;;;;;;;;;4916766;29;20025;-64
2024/01/15 00:54:56;;;;;;;9.45;6.22;;;;;;;;;;4916681;29;20115;-64
2024/01/15 00:57:21;;;;;;;10.55;5.85;;;;;;;;;;4918838;29;20374;-64
2024/01/15 00:59:47;;;;;;;9.82;6.13;;;;;;;;;;4899959;29;20525;-64
2024/01/15 01:02:12;;;;;;;9.65;5.85;;;;;;;;;;4916642;29;20020;-65
2024/01/15 01:04:38;;;;;;;7.90;6.20;;;;;;;;;;4917660;29;20020;-64
2024/01/15 01:07:08;;;;;;;7.32;5.82;;;;;;;;;;4916698;29;20036;-64
2024/01/15 01:09:34;;;;;;;8.38;6.28;;;;;;;;;;4917978;29;20063;-62
2024/01/15 01:12:00;;;;;;;10.95;6.22;;;;;;;;;;4919206;29;20405;-65
2024/01/15 01:14:25;;;;;;;8.85;5.68;;;;;;;;;;4903389;29;20028;-65
2024/01/15 01:16:51;;;;;;;10.10;6.05;;;;;;;;;;4920895;29;20066;-65
2024/01/15 01:19:16;;;;;;;8.95;6.40;;;;;;;;;;4920772;29;20385;-65
2024/01/15 01:21:42;;;;;;;11.13;6.20;;;;;;;;;;4919565;29;20024;-64
2024/01/15 01:24:07;;;;;;;9.90;6.35;;;;;;;;;;4921513;29;20032;-65
2024/01/15 01:26:33;;;;;;;9.82;6.05;;;;;;;;;;4921304;29;20120;-65
2024/01/15 01:28:59;;;;;;;8.25;5.82;;;;;;;;;;4922149;29;20032;-64
2024/01/15 01:31:24;;;;;;;11.15;6.03;;;;;;;;;;4920462;29;20512;-64
2024/01/15 01:33:50;;;;;;;9.40;5.97;;;;;;;;;;4920170;29;20040;-65
2024/01/15 01:36:15;;;;;;;7.45;5.63;;;;;;;;;;4920338;29;20111;-65
2024/01/15 01:38:41;;;;;;;8.07;5.55;;;;;;;;;;4920418;29;20053;-65
2024/01/15 01:41:07;;;;;;;9.07;5.80;;;;;;;;;;4920306;29;20107;-64
2024/01/15 01:43:33;;;;;;;7.80;5.75;;;;;;;;;;4919557;29;20499;-65
2024/01/15 01:46:00;;;;;;;9.55;5.65;;;;;;;;;;4918803;29;20394;-65
2024/01/15 01:48:27;;;;;;;8.35;5.85;;;;;;;;;;4921650;29;20482;-65
2024/01/15 01:50:59;;;;;;;8.43;6.03;;;;;;;;;;4919361;29;20029;-65
2024/01/15 01:53:26;;;;;;;8.93;6.00;;;;;;;;;;4920390;29;20067;-64
2024/01/15 01:55:52;;;;;;;8.38;6.00;;;;;;;;;;4920602;29;20111;-64
2024/01/15 01:58:19;;;;;;;9.23;5.88;;;;;;;;;;4903288;29;20370;-65
2024/01/15 02:00:45;;;;;;;9.65;5.45;;;;;;;;;;4919363;29;20516;-64
2024/01/15 02:03:10;;;;;;;7.47;5.65;;;;;;;;;;4919261;29;20057;-65
2024/01/15 02:05:37;;;;;;;9.32;6.35;;;;;;;;;;4921368;29;20026;-64
2024/01/15 02:08:02;;;;;;;8.60;5.57;;;;;;;;;;4919521;29;20028;-64
2024/01/15 02:10:28;;;;;;;8.18;5.32;;;;;;;;;;4918841;29;20042;-64
2024/01/15 02:12:53;;;;;;;7.78;5.47;;;;;;;;;;4918792;29;20469;-64
2024/01/15 02:15:19;;;;;;;7.18;5.47;;;;;;;;;;4918616;29;20028;-65
2024/01/15 02:18:01;;;;;;;7.22;5.95;;;;;;;;;;4919365;29;20080;-64
2024/01/15 02:20:27;;;;;;;7.57;5.65;;;;;;;;;;4919117;29;20500;-64
2024/01/15 02:22:52;;;;;;;7.85;5.70;;;;;;;;;;4917858;29;20028;-64
2024/01/15 02:25:18;;;;;;;7.18;5.45;;;;;;;;;;4918687;29;20092;-64
2024/01/15 02:27:45;;;;;;;7.70;5.45;;;;;;;;;;4920221;29;20063;-64
2024/01/15 02:30:13;;;;;;;7.40;5.60;;;;;;;;;;4918746;29;20055;-64
2024/01/15 02:32:39;;;;;;;7.60;5.78;;;;;;;;;;4918360;29;20579;-64
2024/01/15 02:35:04;;;;;;;8.15;5.93;;;;;;;;;;4919225;29;20130;-65
2024/01/15 02:37:30;;;;;;;8.68;5.75;;;;;;;;;;4902858;29;20032;-64
2024/01/15 02:39:56;;;;;;;7.72;5.65;;;;;;;;;;4919064;29;20024;-64
2024/01/15 02:42:21;;;;;;;8.38;5.53;;;;;;;;;;4918819;29;20028;-64
2024/01/15 02:44:48;;;;;;;8.45;5.70;;;;;;;;;;4918364;29;20059;-64
2024/01/15 02:47:14;;;;;;;6.70;5.47;;;;;;;;;;4918221;29;20068;-64
2024/01/15 02:49:40;;;;;;;8.23;5.72;;;;;;;;;;4919953;29;20104;-64
2024/01/15 02:52:06;;;;;;;7.55;5.63;;;;;;;;;;4919173;29;20024;-64
2024/01/15 02:54:31;;;;;;;11.45;5.78;;;;;;;;;;4918811;29;20016;-64
2024/01/15 02:56:57;;;;;;;8.05;5.43;;;;;;;;;;4919521;29;20059;-64
2024/01/15 02:59:22;;;;;;;9.18;5.60;;;;;;;;;;4919295;29;20028;-64
2024/01/15 03:01:48;;;;;;;7.70;5.70;;;;;;;;;;4918235;29;20099;-66
2024/01/15 03:04:13;;;;;;;8.45;5.95;;;;;;;;;;4918649;29;20031;-65
2024/01/15 03:06:39;;;;;;;9.20;5.20;;;;;;;;;;4918642;29;20024;-64
2024/01/15 03:09:05;;;;;;;9.30;5.90;;;;;;;;;;4918208;29;20063;-63
2024/01/15 03:11:38;;;;;;;6.70;4.85;;;;;;;;;;4918131;29;20032;-64
2024/01/15 03:14:04;;;;;;;6.47;5.10;;;;;;;;;;4918056;29;20488;-63
2024/01/15 03:16:29;;;;;;;7.15;5.18;;;;;;;;;;4917763;29;20056;-64
2024/01/15 03:18:55;;;;;;;6.97;5.53;;;;;;;;;;4919252;29;20465;-64
2024/01/15 03:21:20;;;;;;;8.20;5.00;;;;;;;;;;4918362;29;20085;-64
2024/01/15 03:23:46;;;;;;;6.32;5.15;;;;;;;;;;4918909;29;20668;-63
2024/01/15 03:26:11;;;;;;;6.60;5.32;;;;;;;;;;4918166;29;20052;-64
2024/01/15 03:28:37;;;;;;;6.97;5.03;;;;;;;;;;4917435;29;20035;-64
2024/01/15 03:31:02;;;;;;;6.22;4.90;;;;;;;;;;4918227;29;20033;-64
2024/01/15 03:33:28;;;;;;;5.95;4.93;;;;;;;;;;4917933;29;20031;-64
2024/01/15 03:35:54;;;;;;;7.30;5.13;;;;;;;;;;4917631;29;20556;-64
2024/01/15 03:38:19;;;;;;;7.68;5.38;;;;;;;;;;4918327;29;20087;-64
2024/01/15 03:40:44;;;;;;;7.80;5.68;;;;;;;;;;4917325;29;20024;-64
2024/01/15 03:43:10;;;;;;;6.40;5.18;;;;;;;;;;4918104;29;20032;-64
2024/01/15 03:45:36;;;;;;;6.85;5.70;;;;;;;;;;4917549;29;20039;-64
2024/01/15 03:48:01;;;;;;;8.05;5.40;;;;;;;;;;4917616;29;20080;-64
2024/01/15 03:50:27;;;;;;;7.07;5.10;;;;;;;;;;4917321;29;20036;-64
2024/01/15 03:52:52;;;;;;;8.77;4.95;;;;;;;;;;4919077;29;20028;-64
2024/01/15 03:55:18;;;;;;;8.40;5.18;;;;;;;;;;4918468;29;20063;-64
2024/01/15 03:57:43;;;;;;;6.35;5.00;;;;;;;;;;4917607;29;20376;-59
2024/01/15 04:00:09;;;;;;;8.77;5.20;;;;;;;;;;4917382;29;20483;-64
2024/01/15 04:02:35;;;;;;;7.28;5.57;;;;;;;;;;4917833;29;20504;-64
2024/01/15 04:05:00;;;;;;;5.90;4.88;;;;;;;;;;4917604;29;20036;-65
2024/01/15 04:07:26;;;;;;;7.68;5.47;;;;;;;;;;4918231;29;20024;-64
2024/01/15 04:09:51;;;;;;;6.88;5.10;;;;;;;;;;4917128;29;20028;-64
2024/01/15 04:12:17;;;;;;;7.43;5.00;;;;;;;;;;4900754;29;20028;-64
2024/01/15 04:14:42;;;;;;;6.45;5.18;;;;;;;;;;4917274;29;20544;-64
2024/01/15 04:17:08;;;;;;;6.90;4.80;;;;;;;;;;4917091;29;20028;-64
2024/01/15 04:19:33;;;;;;;7.40;4.97;;;;;;;;;;4917421;29;20028;-65
2024/01/15 04:21:59;;;;;;;8.50;5.28;;;;;;;;;;4917554;29;20039;-64
2024/01/15 04:24:24;;;;;;;7.88;5.30;;;;;;;;;;4916796;29;20047;-64
2024/01/15 04:26:50;;;;;;;7.10;4.55;;;;;;;;;;4916670;29;20020;-64
2024/01/15 04:29:15;;;;;;;6.25;4.82;;;;;;;;;;4917261;29;20032;-64
2024/01/15 04:31:41;;;;;;;6.93;5.18;;;;;;;;;;4916857;29;20032;-65
2024/01/15 04:34:06;;;;;;;8.45;4.80;;;;;;;;;;4916883;29;20062;-64
2024/01/15 04:36:32;;;;;;;6.85;4.88;;;;;;;;;;4916837;29;20469;-64
2024/01/15 04:38:57;;;;;;;7.50;5.10;;;;;;;;;;4918172;29;20063;-64
2024/01/15 04:41:23;;;;;;;6.45;4.97;;;;;;;;;;4917785;29;20020;-65
2024/01/15 04:43:48;;;;;;;7.13;4.85;;;;;;;;;;4916701;29;20393;-65
2024/01/15 04:46:14;;;;;;;7.20;5.32;;;;;;;;;;4917251;29;20035;-64
2024/01/15 04:48:40;;;;;;;6.53;4.93;;;;;;;;;;4920620;29;20039;-65
2024/01/15 04:51:08;;;;;;;7.13;4.78;;;;;;;;;;4921451;29;20028;-65
2024/01/15 04:53:34;;;;;;;5.97;4.40;;;;;;;;;;4903911;29;20039;-65
2024/01/15 04:56:00;;;;;;;6.70;5.07;;;;;;;;;;4920550;29;20111;-65
2024/01/15 04:58:27;;;;;;;7.93;5.65;;;;;;;;;;4920808;29;20115;-65
2024/01/15 05:00:52;;;;;;;6.28;5.03;;;;;;;;;;4920412;29;20103;-64
2024/01/15 05:03:18;;;;;;;6.75;4.70;;;;;;;;;;4920727;29;20517;-63
2024/01/15 05:05:45;;;;;;;5.57;4.25;;;;;;;;;;4920621;29;20024;-63
2024/01/15 05:08:10;;;;;;;7.07;5.00;;;;;;;;;;4921578;29;20378;-63
2024/01/15 05:10:37;;;;;;;6.80;4.82;;;;;;;;;;4920159;29;20487;-63
2024/01/15 05:13:02;;;;;;;7.30;4.95;;;;;;;;;;4920637;29;20039;-63
2024/01/15 05:15:28;;;;;;;6.85;5.05;;;;;;;;;;4919897;29;20396;-63
2024/01/15 05:17:53;;;;;;;7.55;5.35;;;;;;;;;;4921009;29;20030;-63
2024/01/15 05:20:19;;;;;;;8.45;4.93;;;;;;;;;;4920559;29;20473;-63
2024/01/15 05:22:44;;;;;;;6.53;4.70;;;;;;;;;;4920677;29;20035;-63
2024/01/15 05:25:10;;;;;;;5.65;4.68;;;;;;;;;;4920311;29;20418;-63
2024/01/15 05:27:35;;;;;;;6.53;4.65;;;;;;;;;;4920070;29;20087;-63
2024/01/15 05:30:01;;;;;;;6.72;4.68;;;;;;;;;;4919747;29;20110;-64
2024/01/15 05:32:26;;;;;;;6.57;4.95;;;;;;;;;;4920134;29;20389;-64
2024/01/15 05:34:52;;;;;;;6.65;4.93;;;;;;;;;;4919908;29;20044;-64
2024/01/15 05:37:17;;;;;;;6.70;4.40;;;;;;;;;;4920335;29;20032;-64
2024/01/15 05:39:43;;;;;;;5.47;4.60;;;;;;;;;;4919689;29;20028;-64
2024/01/15 05:42:08;;;;;;;7.43;5.07;;;;;;;;;;4920437;29;20036;-64
2024/01/15 05:44:34;;;;;;;6.68;4.88;;;;;;;;;;4919868;29;20516;-64
2024/01/15 05:46:59;;;;;;;6.18;4.78;;;;;;;;;;4919673;29;20024;-63
2024/01/15 05:49:25;;;;;;;5.95;4.80;;;;;;;;;;4920489;29;20079;-64
2024/01/15 05:51:51;;;;;;;5.82;4.28;;;;;;;;;;4920525;29;20454;-63
2024/01/15 05:54:18;;;;;;;5.93;4.38;;;;;;;;;;4919376;29;20039;-63
2024/01/15 05:56:44;;;;;;;6.53;4.55;;;;;;;;;;4920266;29;20039;-63
2024/01/15 05:59:09;;;;;;;6.15;4.82;;;;;;;;;;4918513;29;20040;-63
2024/01/15 06:01:35;;;;;;;5.57;4.40;;;;;;;;;;4919493;29;20034;-64
2024/01/15 06:04:00;;;;;;;4.60;4.18;;;;;;;;;;4919777;29;20020;-63
2024/01/15 06:06:26;;;;;;;6.07;4.90;;;;;;;;;;4919764;29;20083;-63
2024/01/15 06:08:51;;;;;;;5.90;4.60;;;;;;;;;;4919119;29;20043;-63
2024/01/15 06:11:17;;;;;;;5.78;4.40;;;;;;;;;;4919373;29;20032;-64
2024/01/15 06:13:42;;;;;;;7.00;4.82;;;;;;;;;;4919352;29;20032;-64
2024/01/15 06:16:20;;;;;;;5.85;4.30;;;;;;;;;;4918767;29;20071;-63
2024/01/15 06:18:45;;;;;;;7.35;3.97;;;;;;;;;;4918929;29;20039;-63
2024/01/15 06:21:12;;;;;;;5.97;4.60;;;;;;;;;;4919093;29;20028;-63
2024/01/15 06:23:38;;;;;;;5.70;4.60;;;;;;;;;;4918994;29;20028;-63
2024/01/15 06:26:04;;;;;;;5.22;4.72;;;;;;;;;;4918536;29;20028;-64
2024/01/15 06:28:30;;;;;;;6.78;4.80;;;;;;;;;;4919255;29;20052;-64
2024/01/15 06:30:55;;;;;;;6.10;4.78;;;;;;;;;;4918848;29;20111;-63
2024/01/15 06:33:21;;;;;;;5.95;4.93;;;;;;;;;;4918946;29;20468;-64
2024/01/15 06:35:46;;;;;;;6.07;4.82;;;;;;;;;;4918660;29;20035;-63
2024/01/15 06:38:11;;;;;;;5.65;4.88;;;;;;;;;;4919276;29;20078;-63
2024/01/15 06:40:37;;;;;;;5.82;4.78;;;;;;;;;;4919243;29;20468;-65
2024/01/15 06:43:03;;;;;;;6.70;4.80;;;;;;;;;;4919213;29;20028;-63
2024/01/15 06:45:28;;;;;;;5.97;4.63;;;;;;;;;;4918341;29;20048;-63
2024/01/15 06:47:54;;;;;;;4.95;4.30;;;;;;;;;;4918641;29;20028;-64
2024/01/15 06:50:19;;;;;;;7.72;4.95;;;;;;;;;;4918426;29;20032;-64
2024/01/15 06:52:45;;;;;;;5.78;4.55;;;;;;;;;;4918706;29;20484;-64
2024/01/15 06:55:10;;;;;;;5.32;4.55;;;;;;;;;;4918735;29;20053;-64
2024/01/15 06:57:36;;;;;;;6.53;4.45;;;;;;;;;;4918888;29;20024;-62
2024/01/15 07:00:02;;;;;;;6.00;4.50;;;;;;;;;;4918198;29;20469;-64
2024/01/15 07:02:28;;;;;;;6.15;4.75;;;;;;;;;;4918510;29;20036;-64
2024/01/15 07:04:53;;;;;;;5.93;4.20;;;;;;;;;;4918838;29;20028;-64
2024/01/15 07:07:19;;;;;;;7.03;4.72;;;;;;;;;;4919372;29;20033;-63
2024/01/15 07:09:46;;;;;;;6.00;4.60;;;;;;;;;;4918117;29;20107;-63
2024/01/15 07:12:12;;;;;;;5.45;4.38;;;;;;;;;;4918759;29;20494;-63
2024/01/15 07:14:37;;;;;;;6.47;4.53;;;;;;;;;;4918330;29;20044;-63
2024/01/15 07:17:03;;;;;;;6.05;4.47;;;;;;;;;;4917533;29;20028;-63
2024/01/15 07:19:28;;;;;;;5.22;3.85;;;;;;;;;;4917972;29;20065;-61
2024/01/15 07:21:55;;;;;;;5.20;4.20;;;;;;;;;;4918075;29;20032;-63
2024/01/15 07:24:20;;;;;;;6.68;4.15;;;;;;;;;;4918544;29;20024;-63
2024/01/15 07:26:46;;;;;;;5.80;4.63;;;;;;;;;;4918273;29;20043;-63
2024/01/15 07:29:11;;;;;;;5.38;4.45;;;;;;;;;;4917439;29;20032;-63
2024/01/15 07:31:37;;;;;;;5.07;4.18;;;;;;;;;;4917708;29;20060;-64
2024/01/15 07:34:02;;;;;;;5.97;4.20;;;;;;;;;;4917794;29;20118;-64
2024/01/15 07:36:28;;;;;;;5.15;4.25;;;;;;;;;;4917505;29;20408;-64
2024/01/15 07:38:53;;;;;;;5.57;4.70;;;;;;;;;;4918700;29;20030;-65
2024/01/15 07:41:19;;;;;;;6.40;4.43;;;;;;;;;;4918491;29;20047;-65
2024/01/15 07:43:44;;;;;;;6.30;4.68;;;;;;;;;;4917983;29;20362;-65
2024/01/15 07:46:10;;;;;;;4.75;4.20;;;;;;;;;;4917719;29;20032;-64
2024/01/15 07:48:35;;;;;;;6.63;4.60;;;;;;;;;;4916986;29;20028;-64
2024/01/15 07:51:01;;;;;;;6.43;4.50;;;;;;;;;;4917241;29;20498;-64
2024/01/15 07:53:26;;;;;;;5.53;4.35;;;;;;;;;;4918028;29;20020;-63
2024/01/15 07:55:52;;;;;;;6.65;4.55;;;;;;;;;;4917222;29;20036;-63
2024/01/15 07:58:17;;;;;;;6.10;4.65;;;;;;;;;;4917218;29;20024;-64
2024/01/15 08:00:43;;;;;;;5.10;4.18;;;;;;;;;;4917741;29;20111;-65
2024/01/15 08:03:08;;;;;;;5.53;4.30;;;;;;;;;;4917241;29;20032;-60
2024/01/15 08:05:34;;;;;;;6.85;4.75;;;;;;;;;;4917295;29;20028;-64
2024/01/15 08:08:00;;;;;;;6.45;4.53;;;;;;;;;;4917457;29;20500;-65
2024/01/15 08:10:25;;;;;;;7.72;5.07;;;;;;;;;;4918280;29;20192;-65
2024/01/15 08:12:51;;;;;;;5.57;4.60;;;;;;;;;;4918001;29;20030;-65
2024/01/15 08:15:17;;;;;;;5.22;4.40;;;;;;;;;;4917366;29;20028;-65
2024/01/15 08:17:42;;;;;;;5.50;4.90;;;;;;;;;;4917944;29;20013;-65
2024/01/15 08:20:08;;;;;;;5.57;4.57;;;;;;;;;;4917637;29;20075;-65
2024/01/15 08:22:34;;;;;;;6.00;4.43;;;;;;;;;;4916709;29;20024;-64
2024/01/15 08:24:59;;;;;;;4.95;3.90;;;;;;;;;;4917034;29;20035;-64
2024/01/15 08:27:25;;;;;;;5.70;4.38;;;;;;;;;;4916610;29;20067;-65
2024/01/15 08:29:50;;;;;;;5.93;4.80;;;;;;;;;;4917525;29;20075;-65
2024/01/15 08:32:17;;;;;;;5.05;4.55;;;;;;;;;;4917061;29;20485;-64
2024/01/15 08:34:43;;;;;;;5.15;4.55;;;;;;;;;;4916669;29;20059;-64
2024/01/15 08:37:08;;;;;;;5.32;4.28;;;;;;;;;;4917416;29;20091;-63
2024/01/15 08:39:34;;;;;;;4.85;4.35;;;;;;;;;;4916754;29;20429;-63
2024/01/15 08:41:59;;;;;;;5.50;4.55;;;;;;;;;;4916568;29;20103;-63
2024/01/15 08:44:25;;;;;;;4.97;3.88;;;;;;;;;;4916712;29;20051;-63
2024/01/15 08:46:50;;;;;;;7.20;4.40;;;;;;;;;;4916450;29;20087;-63
2024/01/15 08:49:16;;;;;;;5.30;4.10;;;;;;;;;;4916817;29;20048;-63
2024/01/15 08:51:41;;;;;;;5.25;4.35;;;;;;;;;;4916326;29;20028;-63
2024/01/15 08:54:08;;;;;;;5.53;4.32;;;;;;;;;;4916404;29;20032;-63
2024/01/15 08:56:34;;;;;;;5.80;4.60;;;;;;;;;;4917677;29;20028;-63
2024/01/15 08:58:59;;;;;;;5.15;3.92;;;;;;;;;;4916808;29;20024;-64
2024/01/15 09:01:25;;;;;;;5.30;4.13;;;;;;;;;;4916067;29;20028;-64
2024/01/15 09:03:51;;;;;;;5.57;4.43;;;;;;;;;;4916341;29;20075;-63
2024/01/15 09:06:16;;;;;;;4.43;3.92;;;;;;;;;;4914317;29;20099;-64
2024/01/15 09:08:42;;;;;;;5.35;4.00;;;;;;;;;;4915061;29;20099;-63
2024/01/15 09:11:07;;;;;;;6.05;4.32;;;;;;;;;;4914838;29;20028;-65
2024/01/15 09:13:33;;;;;;;5.35;4.05;;;;;;;;;;4911441;29;20025;-64
2024/01/15 09:15:59;;;;;;;5.28;4.05;;;;;;;;;;4910817;29;20024;-63
2024/01/15 09:18:25;;;;;;;5.72;4.50;;;;;;;;;;4912899;29;20107;-64
2024/01/15 09:20:51;;;;;;;5.38;4.25;;;;;;;;;;4915129;29;20084;-64
2024/01/15 09:23:16;;;;;;;4.95;4.40;;;;;;;;;;4914166;29;20028;-71
2024/01/15 09:25:42;;;;;;;5.95;4.63;;;;;;;;;;4914407;29;20414;-66
2024/01/15 09:28:08;;;;;;;5.03;4.32;;;;;;;;;;4913850;29;20775;-64
2024/01/15 09:30:33;;;;;;;4.90;4.28;;;;;;;;;;4912406;29;20080;-65
2024/01/15 09:32:59;;;;;;;4.85;3.75;;;;;;;;;;4916599;29;20119;-67
2024/01/15 09:35:24;;;;;;;4.65;4.15;;;;;;;;;;4917116;29;20035;-64
2024/01/15 09:37:50;;;;;;;6.15;4.30;;;;;;;;;;4917337;29;20028;-63
2024/01/15 09:40:15;;;;;;;5.20;4.30;;;;;;;;;;4918403;29;20084;-64
2024/01/15 09:42:42;;;;;;;7.78;4.47;;;;;;;;;;4918466;29;20031;-70
2024/01/15 09:45:09;;;;;;;5.25;4.30;;;;;;;;;;4918174;29;20079;-69
2024/01/15 09:47:36;;;;;;;5.43;4.35;;;;;;;;;;4916003;29;20516;-66
2024/01/15 09:50:03;;;;;;;5.43;4.60;;;;;;;;;;4918252;29;20020;-64
2024/01/15 09:52:30;;;;;;;5.65;4.80;;;;;;;;;;4918176;29;20074;-65
2024/01/15 09:54:58;;;;;;;5.45;4.55;;;;;;;;;;4917536;29;20027;-70
2024/01/15 09:57:23;;;;;;;4.80;4.30;;;;;;;;;;4918699;29;20476;-65
2024/01/15 09:59:51;;;;;;;6.68;4.32;;;;;;;;;;4914853;29;20039;-65
2024/01/15 10:02:18;;;;;;;5.88;4.43;;;;;;;;;;4913098;29;20040;-64
2024/01/15 10:04:44;;;;;;;6.13;4.25;;;;;;;;;;4914682;29;20036;-65
2024/01/15 10:07:15;;;;;;;5.22;4.53;;;;;;;;;;4914672;29;20397;-65
2024/01/15 10:09:41;;;;;;;5.28;4.55;;;;;;;;;;4914742;29;20110;-64
2024/01/15 10:12:08;;;;;;;6.07;4.70;;;;;;;;;;4914784;29;20028;-64
2024/01/15 10:14:33;;;;;;;4.60;4.05;;;;;;;;;;4913506;29;20039;-64
2024/01/15 10:16:58;;;;;;;6.03;4.68;;;;;;;;;;4914422;29;20028;-64
2024/01/15 10:19:24;;;;;;;5.32;4.38;;;;;;;;;;4914536;29;20028;-64
2024/01/15 10:21:49;;;;;;;5.40;4.35;;;;;;;;;;4914360;29;20032;-64
2024/01/15 10:24:15;;;;;;;6.85;4.72;;;;;;;;;;4914338;29;20028;-64
2024/01/15 10:26:41;;;;;;;5.03;4.22;;;;;;;;;;4916247;29;20036;-62
2024/01/15 10:29:06;;;;;;;5.32;4.30;;;;;;;;;;4917330;29;20070;-65
2024/01/15 10:31:32;;;;;;;5.32;4.63;;;;;;;;;;4918072;29;20032;-61
2024/01/15 10:34:12;;;;;;;5.22;4.38;;;;;;;;;;4918278;29;20038;-63
2024/01/15 10:36:40;;;;;;;5.03;4.50;;;;;;;;;;4916455;29;20081;-60
2024/01/15 10:39:07;;;;;;;6.30;4.82;;;;;;;;;;4911807;29;20470;-68
2024/01/15 10:41:33;;;;;;;6.03;4.55;;;;;;;;;;4918141;29;20028;-64
2024/01/15 10:43:59;;;;;;;5.38;4.20;;;;;;;;;;4917469;29;20062;-61
2024/01/15 10:46:26;;;;;;;5.85;4.70;;;;;;;;;;4918011;29;20529;-62
2024/01/15 10:48:53;;;;;;;10.45;5.10;;;;;;;;;;4918104;29;20020;-62
2024/01/15 10:51:19;;;;;;;5.95;4.78;;;;;;;;;;4918190;29;20581;-60
2024/01/15 10:53:46;;;;;;;11.57;4.95;;;;;;;;;;4910159;29;20107;-61
2024/01/15 10:56:13;;;;;;;7.75;4.57;;;;;;;;;;4912819;29;20548;-61
2024/01/15 10:58:40;;;;;;;19.48;5.50;;;;;;;;;;4898597;29;20128;-61
2024/01/15 11:01:07;;;;;;;5.35;4.50;;;;;;;;;;4916781;29;20055;-62
2024/01/15 11:03:33;;;;;;;6.03;4.35;;;;;;;;;;4916621;29;20090;-62
2024/01/15 11:06:00;;;;;;;6.10;4.80;;;;;;;;;;4899811;29;20090;-62
2024/01/15 11:08:28;;;;;;;6.53;4.82;;;;;;;;;;4916496;29;20430;-62
2024/01/15 11:10:54;;;;;;;5.88;4.35;;;;;;;;;;4917244;29;20508;-63
2024/01/15 11:13:40;;;;;;;6.90;4.68;;;;;;;;;;4916761;29;20020;-63
2024/01/15 11:16:08;;;;;;;10.55;5.00;;;;;;;;;;4916698;29;20044;-63
2024/01/15 11:18:41;;;;;;;6.15;4.60;;;;;;;;;;4916399;29;20151;-63
2024/01/15 11:21:16;;;;;;;6.32;4.40;;;;;;;;;;4915422;29;20028;-63
2024/01/15 11:23:49;;;;;;;6.53;4.50;;;;;;;;;;4916747;29;20366;-62
2024/01/15 11:26:30;;;;;;;6.25;4.45;;;;;;;;;;4916288;29;20385;-63
2024/01/15 11:28:57;;;;;;;8.73;4.80;;;;;;;;;;4916585;29;20024;-62
2024/01/15 11:31:41;;;;;;;5.50;4.45;;;;;;;;;;4916112;29;20496;-64
2024/01/15 11:34:08;;;;;;;6.18;4.47;;;;;;;;;;4916261;29;20040;-63
2024/01/15 11:36:46;;;;;;;6.75;4.60;;;;;;;;;;4916054;29;20027;-66
2024/01/15 11:39:26;;;;;;;6.97;4.82;;;;;;;;;;4915692;29;20107;-62
2024/01/15 11:41:55;;;;;;;8.15;4.38;;;;;;;;;;4916824;29;20036;-62
2024/01/15 11:44:21;;;;;;;6.82;4.70;;;;;;;;;;4916279;29;20091;-70
2024/01/15 11:47:04;;;;;;;7.60;4.85;;;;;;;;;;4916665;29;20054;-69
2024/01/15 11:50:01;;;;;;;5.70;4.45;;;;;;;;;;4914968;29;20099;-69
2024/01/15 11:52:32;;;;;;;11.20;5.30;;;;;;;;;;4916065;29;20032;-69
2024/01/15 11:55:11;;;;;;;12.98;5.50;;;;;;;;;;4914490;29;20039;-68
2024/01/15 11:57:43;;;;;;;9.80;5.30;;;;;;;;;;4915434;29;20036;-69
2024/01/15 12:00:10;;;;;;;18.33;6.20;;;;;;;;;;4912808;29;20043;-69
2024/01/15 12:02:36;;;;;;;10.20;5.25;;;;;;;;;;4917164;29;20027;-69
2024/01/15 12:05:02;;;;;;;9.55;6.05;;;;;;;;;;4917078;29;20624;-67
2024/01/15 12:07:28;;;;;;;13.23;7.50;;;;;;;;;;4916804;29;20172;-65
2024/01/15 12:09:54;;;;;;;9.65;7.15;;;;;;;;;;4916880;29;20623;-66
2024/01/15 12:12:37;;;;;;;15.32;8.45;;;;;;;;;;4916794;29;20028;-66
2024/01/15 12:15:03;;;;;;;11.93;6.93;;;;;;;;;;4916498;29;20028;-66
2024/01/15 12:17:29;;;;;;;12.90;6.90;;;;;;;;;;4916481;29;20028;-66
2024/01/15 12:19:55;;;;;;;11.25;7.43;;;;;;;;;;4916473;29;20031;-66
2024/01/15 12:22:21;;;;;;;13.15;7.63;;;;;;;;;;4916703;29;20115;-65
2024/01/15 12:24:47;;;;;;;12.32;7.55;;;;;;;;;;4916370;29;20063;-65
2024/01/15 12:27:12;;;;;;;13.88;7.03;;;;;;;;;;4916333;29;20050;-65
2024/01/15 12:29:38;;;;;;;14.75;7.38;;;;;;;;;;4916567;29;20036;-65
2024/01/15 12:32:05;;;;;;;16.73;7.18;;;;;;;;;;4916007;29;20123;-65
2024/01/15 12:34:32;;;;;;;15.73;8.27;;;;;;;;;;4916210;29;20079;-66
2024/01/15 12:36:58;;;;;;;19.88;12.07;;;;;;;;;;4914581;29;20035;-65
2024/01/15 12:39:24;;;;;;;28.30;15.27;;;;;;;;;;4916624;29;20028;-65
2024/01/15 12:41:51;;;;;;;22.27;12.25;;;;;;;;;;4917113;29;20024;-65
2024/01/15 12:44:17;;;;;;;16.48;10.10;;;;;;;;;;4916082;29;20048;-66
2024/01/15 12:46:42;;;;;;;23.65;11.65;;;;;;;;;;4916159;29;20501;-65
2024/01/15 12:49:08;;;;;;;32.47;11.93;;;;;;;;;;4916433;29;20032;-65
2024/01/15 12:51:37;;;;;;;21.13;11.68;;;;;;;;;;4916023;29;20035;-72
2024/01/15 12:54:02;;;;;;;28.27;11.35;;;;;;;;;;4915972;29;20036;-66
2024/01/15 12:56:28;;;;;;;21.23;11.32;;;;;;;;;;4916085;29;20039;-70
2024/01/15 12:58:53;;;;;;;23.05;11.18;;;;;;;;;;4916359;29;20103;-67
2024/01/15 13:01:19;;;;;;;26.00;11.63;;;;;;;;;;4916225;29;20147;-66
2024/01/15 13:03:44;;;;;;;27.60;10.13;;;;;;;;;;4916006;29;20397;-66
2024/01/15 13:06:10;;;;;;;23.05;10.60;;;;;;;;;;4916077;29;20020;-66
2024/01/15 13:08:35;;;;;;;18.48;10.70;;;;;;;;;;4918942;29;20088;-69
2024/01/15 13:11:01;;;;;;;19.38;10.23;;;;;;;;;;4919884;29;20449;-66
2024/01/15 13:13:27;;;;;;;20.85;10.68;;;;;;;;;;4919795;29;20024;-66
2024/01/15 13:15:52;;;;;;;18.95;10.80;;;;;;;;;;4917815;29;20032;-66
2024/01/15 13:18:18;;;;;;;21.10;11.70;;;;;;;;;;4919717;29;20036;-66
2024/01/15 13:20:45;;;;;;;20.67;10.43;;;;;;;;;;4919712;29;20059;-66
2024/01/15 13:23:11;;;;;;;22.23;10.88;;;;;;;;;;4919266;29;20046;-66
2024/01/15 13:25:38;;;;;;;20.13;11.02;;;;;;;;;;4919498;29;20032;-65
2024/01/15 13:28:04;;;;;;;18.50;10.35;;;;;;;;;;4919503;29;20032;-65
2024/01/15 13:30:31;;;;;;;18.77;9.43;;;;;;;;;;4917818;29;20103;-66
2024/01/15 13:32:57;;;;;;;20.05;9.90;;;;;;;;;;4919516;29;20036;-66
2024/01/15 13:35:23;;;;;;;20.30;9.13;;;;;;;;;;4919444;29;20039;-66
2024/01/15 13:37:48;;;;;;;23.60;9.85;;;;;;;;;;4919481;29;20489;-66
2024/01/15 13:40:19;;;;;;;18.20;9.15;;;;;;;;;;4919277;29;20028;-66
2024/01/15 13:42:47;;;;;;;17.60;9.30;;;;;;;;;;4918035;29;20032;-71
2024/01/15 13:45:14;;;;;;;27.15;9.95;;;;;;;;;;4918041;29;20127;-66
2024/01/15 13:47:42;;;;;;;22.63;9.45;;;;;;;;;;4919362;29;20047;-65
2024/01/15 13:50:07;;;;;;;17.63;9.07;;;;;;;;;;4919729;29;20111;-66
2024/01/15 13:52:33;;;;;;;20.88;8.48;;;;;;;;;;4917136;29;20115;-65
2024/01/15 13:54:59;;;;;;;15.70;8.77;;;;;;;;;;4918996;29;20043;-65
2024/01/15 13:57:24;;;;;;;14.88;8.30;;;;;;;;;;4919153;29;20040;-65
2024/01/15 13:59:50;;;;;;;17.88;8.60;;;;;;;;;;4919878;29;20107;-66
2024/01/15 14:02:15;;;;;;;13.35;8.43;;;;;;;;;;4919315;29;20036;-65
2024/01/15 14:04:43;;;;;;;13.90;8.80;;;;;;;;;;4918919;29;20039;-65
2024/01/15 14:07:09;;;;;;;12.95;8.65;;;;;;;;;;4919175;29;20457;-65
2024/01/15 14:09:35;;;;;;;13.65;8.35;;;;;;;;;;4918677;29;20043;-67
2024/01/15 14:12:00;;;;;;;18.63;8.68;;;;;;;;;;4918379;29;20032;-67
2024/01/15 14:14:26;;;;;;;13.55;8.05;;;;;;;;;;4918578;29;20031;-67
2024/01/15 14:16:51;;;;;;;12.60;7.32;;;;;;;;;;4918693;29;20438;-67
2024/01/15 14:19:18;;;;;;;16.70;8.02;;;;;;;;;;4917869;29;20032;-67
2024/01/15 14:21:43;;;;;;;13.30;7.22;;;;;;;;;;4913687;29;20068;-67
2024/01/15 14:24:09;;;;;;;19.67;7.50;;;;;;;;;;4916726;29;20029;-70
2024/01/15 14:26:34;;;;;;;11.82;7.15;;;;;;;;;;4918431;29;20024;-67
2024/01/15 14:29:00;;;;;;;11.85;7.40;;;;;;;;;;4918571;29;20474;-72
2024/01/15 14:31:26;;;;;;;16.58;7.15;;;;;;;;;;4918323;29;20028;-71
2024/01/15 14:33:58;;;;;;;9.52;6.90;;;;;;;;;;4918545;29;20052;-66